createdAt,value
2022-10-17T00:01:26.205Z,5.25
2022-10-17T00:03:52.927Z,5.25
2022-10-17T00:06:19.595Z,4.07
2022-10-17T00:08:46.256Z,5.82
2022-10-17T00:11:15.695Z,4.25
2022-10-17T00:13:42.294Z,5.63
2022-10-17T00:16:09.029Z,3.70
2022-10-17T00:18:35.633Z,5.22
2022-10-17T00:21:02.250Z,11.13
2022-10-17T00:23:30.228Z,5.97
2022-10-17T00:26:00.359Z,7.63
2022-10-17T00:28:27.065Z,4.55
2022-10-17T00:31:02.483Z,6.95
2022-10-17T00:33:29.414Z,3.10
2022-10-17T00:36:13.864Z,5.78
2022-10-17T00:38:41.473Z,4.35
2022-10-17T00:41:08.531Z,3.50
2022-10-17T00:44:07.864Z,6.95
2022-10-17T00:46:35.978Z,4.72
2022-10-17T00:49:05.521Z,3.40
2022-10-17T00:51:37.570Z,7.20
2022-10-17T00:54:04.330Z,6.80
2022-10-17T00:56:30.963Z,8.48
2022-10-17T00:58:57.628Z,6.18
2022-10-17T01:01:24.292Z,7.93
2022-10-17T01:03:50.954Z,6.32
2022-10-17T01:06:17.698Z,4.82
2022-10-17T01:08:44.338Z,5.63
2022-10-17T01:11:32.843Z,3.92
2022-10-17T01:14:39.296Z,5.38
2022-10-17T01:17:12.091Z,6.90
2022-10-17T01:22:25.768Z,5.38
2022-10-17T01:25:01.609Z,6.18
2022-10-17T01:28:08.070Z,5.45
2022-10-17T01:30:58.943Z,12.35
2022-10-17T01:33:35.165Z,8.35
2022-10-17T01:36:08.442Z,2.53
2022-10-17T01:38:39.194Z,5.60
2022-10-17T01:41:16.899Z,6.50
2022-10-17T01:44:05.769Z,9.02
2022-10-17T01:46:36.450Z,6.32
2022-10-17T01:49:04.117Z,4.68
2022-10-17T01:51:38.990Z,4.63
2022-10-17T01:54:10.968Z,4.38
2022-10-17T01:56:37.563Z,5.60
2022-10-17T01:59:09.290Z,9.38
2022-10-17T02:01:36.223Z,4.93
2022-10-17T02:04:02.865Z,4.93
2022-10-17T02:06:29.459Z,5.15
2022-10-17T02:08:56.038Z,5.07
2022-10-17T02:11:24.174Z,5.63
2022-10-17T02:14:17.179Z,4.97
2022-10-17T02:19:45.999Z,4.25
2022-10-17T02:22:18.426Z,6.88
2022-10-17T02:25:02.669Z,6.80
2022-10-17T02:28:04.856Z,4.90
2022-10-17T02:30:36.893Z,4.10
2022-10-17T02:33:25.275Z,4.85
2022-10-17T02:35:53.765Z,3.30
2022-10-17T02:38:20.524Z,4.57
2022-10-17T02:40:47.226Z,5.55
2022-10-17T02:43:14.202Z,5.40
2022-10-17T02:45:40.794Z,6.00
2022-10-17T02:48:14.371Z,2.42
2022-10-17T02:51:07.679Z,4.47
2022-10-17T02:53:58.366Z,2.53
2022-10-17T02:56:25.134Z,4.75
2022-10-17T02:58:54.639Z,4.30
2022-10-17T03:01:21.323Z,3.40
2022-10-17T03:03:48.019Z,4.78
2022-10-17T03:06:14.622Z,3.13
2022-10-17T03:08:41.233Z,2.40
2022-10-17T03:11:07.823Z,2.70
2022-10-17T03:13:36.340Z,3.75
2022-10-17T03:16:06.327Z,3.60
2022-10-17T03:18:32.911Z,3.72
2022-10-17T03:20:59.502Z,4.07
2022-10-17T03:23:26.104Z,2.60
2022-10-17T03:25:52.668Z,6.78
2022-10-17T03:28:19.322Z,5.18
2022-10-17T03:30:45.942Z,3.75
2022-10-17T03:33:12.492Z,7.78
2022-10-17T03:35:40.360Z,5.13
2022-10-17T03:38:07.033Z,5.53
2022-10-17T03:40:33.624Z,4.13
2022-10-17T03:43:00.180Z,5.80
2022-10-17T03:45:26.814Z,9.45
2022-10-17T03:47:53.454Z,5.63
2022-10-17T03:50:20.041Z,5.10
2022-10-17T03:52:48.297Z,6.43
2022-10-17T03:55:15.445Z,5.10
2022-10-17T03:57:43.473Z,3.67
2022-10-17T04:00:12.679Z,6.28
2022-10-17T04:02:39.262Z,6.95
2022-10-17T04:05:06.386Z,4.18
2022-10-17T04:07:32.974Z,5.20
2022-10-17T04:09:59.545Z,4.07
2022-10-17T04:12:26.277Z,6.05
2022-10-17T04:14:53.094Z,6.68
2022-10-17T04:17:19.678Z,7.05
2022-10-17T04:19:46.269Z,6.22
2022-10-17T04:22:13.443Z,6.32
2022-10-17T04:24:40.082Z,7.07
2022-10-17T04:27:06.630Z,4.20
2022-10-17T04:29:33.203Z,5.53
2022-10-17T04:31:59.791Z,4.63
2022-10-17T04:34:26.365Z,5.30
2022-10-17T04:36:53.024Z,7.95
2022-10-17T04:39:19.747Z,6.15
2022-10-17T04:41:46.410Z,3.97
2022-10-17T04:44:13.097Z,4.82
2022-10-17T04:46:40.078Z,7.20
2022-10-17T04:49:06.723Z,6.95
2022-10-17T04:51:33.310Z,8.32
2022-10-17T04:53:59.981Z,9.85
2022-10-17T04:56:26.590Z,11.70
2022-10-17T04:58:53.229Z,8.75
2022-10-17T05:01:21.167Z,7.10
2022-10-17T05:03:48.002Z,9.07
2022-10-17T05:06:16.461Z,7.78
2022-10-17T05:08:43.251Z,8.88
2022-10-17T05:11:18.351Z,10.30
2022-10-17T05:13:45.120Z,5.28
2022-10-17T05:16:11.816Z,11.30
2022-10-17T05:18:38.432Z,6.68
2022-10-17T05:21:05.207Z,9.52
2022-10-17T05:23:31.788Z,8.48
2022-10-17T05:25:58.393Z,7.10
2022-10-17T05:28:25.088Z,5.88
2022-10-17T05:30:51.707Z,5.38
2022-10-17T05:33:18.377Z,9.57
2022-10-17T05:35:44.978Z,5.15
2022-10-17T05:38:11.609Z,6.07
2022-10-17T05:40:39.335Z,6.50
2022-10-17T05:43:05.902Z,11.77
2022-10-17T05:45:32.545Z,12.82
2022-10-17T05:47:59.335Z,18.30
2022-10-17T05:50:25.986Z,10.15
2022-10-17T05:52:54.591Z,14.07
2022-10-17T05:55:21.497Z,7.50
2022-10-17T05:57:48.547Z,8.20
2022-10-17T06:00:15.301Z,7.70
2022-10-17T06:02:43.119Z,4.90
2022-10-17T06:05:09.709Z,10.10
2022-10-17T06:07:36.323Z,6.90
2022-10-17T06:10:03.282Z,12.98
2022-10-17T06:12:30.226Z,12.05
2022-10-17T06:14:57.176Z,11.70
2022-10-17T06:17:23.765Z,6.50
2022-10-17T06:19:50.394Z,5.00
2022-10-17T06:22:17.053Z,12.65
2022-10-17T06:24:43.819Z,8.80
2022-10-17T06:27:11.937Z,6.65
2022-10-17T06:29:39.095Z,7.32
2022-10-17T06:32:08.607Z,5.07
2022-10-17T06:34:37.769Z,9.95
2022-10-17T06:37:04.386Z,7.80
2022-10-17T06:39:33.799Z,4.90
2022-10-17T06:42:01.026Z,6.68
2022-10-17T06:44:31.470Z,5.70
2022-10-17T06:46:58.963Z,5.63
2022-10-17T06:49:25.658Z,4.97
2022-10-17T06:51:52.790Z,4.95
2022-10-17T06:54:19.472Z,7.20
2022-10-17T06:56:46.050Z,6.57
2022-10-17T06:59:12.880Z,5.95
2022-10-17T07:01:41.833Z,5.80
2022-10-17T07:04:11.209Z,4.97
2022-10-17T07:06:38.590Z,7.82
2022-10-17T07:09:06.781Z,7.00
2022-10-17T07:11:34.986Z,4.70
2022-10-17T07:14:01.998Z,7.40
2022-10-17T07:16:28.632Z,10.07
2022-10-17T07:18:55.629Z,6.40
2022-10-17T07:21:22.288Z,9.88
2022-10-17T07:23:48.964Z,7.57
2022-10-17T07:26:16.208Z,5.20
2022-10-17T07:28:44.084Z,6.18
2022-10-17T07:31:13.354Z,7.13
2022-10-17T07:33:40.094Z,10.57
2022-10-17T07:36:06.973Z,3.88
2022-10-17T07:38:33.704Z,6.25
2022-10-17T07:41:01.461Z,6.15
2022-10-17T07:43:28.321Z,6.03
2022-10-17T07:45:55.303Z,4.40
2022-10-17T07:48:22.893Z,6.95
2022-10-17T07:50:49.802Z,5.60
2022-10-17T07:53:16.615Z,5.78
2022-10-17T07:55:44.705Z,4.95
2022-10-17T07:58:11.387Z,5.25
2022-10-17T08:00:38.196Z,7.78
2022-10-17T08:03:05.044Z,6.55
2022-10-17T08:05:31.780Z,5.95
2022-10-17T08:07:58.453Z,7.18
2022-10-17T08:10:29.553Z,7.82
2022-10-17T08:12:56.948Z,8.73
2022-10-17T08:15:27.926Z,8.43
2022-10-17T08:17:57.659Z,5.65
2022-10-17T08:20:24.254Z,10.77
2022-10-17T08:22:53.405Z,10.05
2022-10-17T08:25:20.091Z,10.65
2022-10-17T08:27:46.658Z,5.95
2022-10-17T08:30:13.478Z,7.97
2022-10-17T08:32:40.298Z,7.45
2022-10-17T08:35:07.332Z,9.90
2022-10-17T08:37:34.276Z,4.50
2022-10-17T08:40:00.995Z,7.70
2022-10-17T08:45:33.104Z,4.97
2022-10-17T08:48:02.789Z,11.13
2022-10-17T08:50:34.907Z,4.55
2022-10-17T08:55:41.335Z,6.78
2022-10-17T08:58:31.193Z,7.90
2022-10-17T09:04:16.058Z,3.58
2022-10-17T09:06:51.778Z,4.45
2022-10-17T09:09:41.420Z,6.72
2022-10-17T09:12:31.911Z,5.25
2022-10-17T09:17:57.099Z,5.32
2022-10-17T09:20:25.978Z,5.10
2022-10-17T09:25:29.084Z,4.82
2022-10-17T09:28:10.924Z,14.82
2022-10-17T09:30:49.372Z,9.00
2022-10-17T09:33:42.361Z,3.95
2022-10-17T09:36:15.901Z,4.00
2022-10-17T09:38:47.474Z,8.45
2022-10-17T09:41:43.659Z,3.20
2022-10-17T09:44:20.269Z,10.43
2022-10-17T09:47:02.026Z,3.83
2022-10-17T09:49:32.488Z,6.17
2022-10-17T09:52:00.351Z,6.97
2022-10-17T09:54:29.734Z,5.05
2022-10-17T09:57:01.244Z,4.30
2022-10-17T09:59:34.701Z,6.47
2022-10-17T10:02:09.010Z,5.63
2022-10-17T10:04:46.875Z,6.28
2022-10-17T10:07:26.890Z,6.88
2022-10-17T10:09:56.013Z,4.72
2022-10-17T10:12:27.649Z,3.17
2022-10-17T10:14:55.406Z,3.47
2022-10-17T10:17:42.613Z,4.78
2022-10-17T10:20:33.882Z,8.32
2022-10-17T10:23:18.169Z,4.32
2022-10-17T10:26:03.588Z,4.35
2022-10-17T10:28:32.442Z,7.13
2022-10-17T10:31:00.474Z,4.13
2022-10-17T10:33:28.701Z,4.32
2022-10-17T10:36:01.759Z,4.35
2022-10-17T10:38:28.522Z,5.85
2022-10-17T10:40:56.760Z,2.83
2022-10-17T10:43:31.520Z,7.50
2022-10-17T10:45:58.126Z,4.45
2022-10-17T10:48:27.821Z,2.85
2022-10-17T10:51:00.016Z,3.00
2022-10-17T10:53:35.449Z,6.15
2022-10-17T10:56:31.366Z,3.75
2022-10-17T10:59:19.048Z,3.22
2022-10-17T11:01:52.477Z,2.70
2022-10-17T11:07:19.944Z,2.38
2022-10-17T11:10:17.301Z,2.40
2022-10-17T11:12:49.258Z,3.08
2022-10-17T11:15:23.230Z,3.03
2022-10-17T11:18:15.285Z,3.25
2022-10-17T11:20:52.271Z,2.28
2022-10-17T11:23:27.615Z,5.00
2022-10-17T11:25:54.305Z,2.90
2022-10-17T11:28:22.382Z,2.97
2022-10-17T11:31:10.002Z,9.32
2022-10-17T11:33:58.714Z,2.33
2022-10-17T11:36:30.709Z,2.20
2022-10-17T11:39:01.773Z,4.18
2022-10-17T11:41:39.607Z,4.85
2022-10-17T11:44:21.600Z,4.90
2022-10-17T11:46:51.210Z,6.57
2022-10-17T11:49:21.633Z,7.93
2022-10-17T11:52:00.309Z,3.60
2022-10-17T11:54:33.973Z,4.57
2022-10-17T12:00:01.051Z,3.88
2022-10-17T12:02:44.461Z,5.00
2022-10-17T12:05:39.339Z,4.20
2022-10-17T12:08:10.088Z,5.40
2022-10-17T12:11:14.365Z,6.40
2022-10-17T12:16:24.125Z,4.18
2022-10-17T12:21:59.206Z,2.20
2022-10-17T12:24:37.758Z,6.07
2022-10-17T12:27:42.403Z,1.88
2022-10-17T12:30:17.144Z,1.70
2022-10-17T12:33:07.367Z,4.80
2022-10-17T12:35:35.272Z,4.45
2022-10-17T12:38:03.853Z,2.95
2022-10-17T12:45:57.817Z,7.13
2022-10-17T12:51:36.182Z,3.53
2022-10-17T12:54:11.896Z,4.53
2022-10-17T12:56:46.867Z,2.22
2022-10-17T12:59:24.086Z,4.55
2022-10-17T13:01:53.708Z,3.10
2022-10-17T13:04:20.390Z,3.10
2022-10-17T13:06:49.433Z,2.00
2022-10-17T13:09:38.107Z,3.58
2022-10-17T13:12:06.553Z,2.13
2022-10-17T13:14:33.518Z,3.85
2022-10-17T13:17:01.766Z,3.80
2022-10-17T13:19:31.486Z,3.25
2022-10-17T13:22:06.316Z,4.07
2022-10-17T13:24:36.712Z,4.65
2022-10-17T13:27:03.653Z,3.47
2022-10-17T13:29:31.998Z,1.65
2022-10-17T13:32:01.404Z,2.25
2022-10-17T13:34:28.270Z,2.65
2022-10-17T13:36:56.767Z,5.05
2022-10-17T13:39:38.199Z,3.67
2022-10-17T13:42:05.335Z,3.30
2022-10-17T13:44:33.910Z,3.92
2022-10-17T13:47:00.730Z,2.20
2022-10-17T13:49:42.871Z,2.63
2022-10-17T13:52:29.482Z,7.55
2022-10-17T13:55:06.182Z,3.45
2022-10-17T13:57:33.354Z,2.65
2022-10-17T14:00:08.582Z,2.80
2022-10-17T14:02:38.131Z,1.98
2022-10-17T14:05:17.195Z,5.20
2022-10-17T14:08:10.842Z,4.30
2022-10-17T14:10:38.305Z,6.78
2022-10-17T14:13:06.161Z,4.15
2022-10-17T14:15:34.858Z,9.18
2022-10-17T14:18:07.842Z,1.73
2022-10-17T14:23:31.386Z,5.05
2022-10-17T14:26:21.922Z,3.58
2022-10-17T14:28:51.595Z,3.17
2022-10-17T14:31:22.860Z,2.20
2022-10-17T14:33:51.028Z,3.90
2022-10-17T14:36:18.173Z,2.72
2022-10-17T14:38:47.255Z,3.08
2022-10-17T14:41:47.306Z,2.38
2022-10-17T14:44:20.718Z,6.00
2022-10-17T14:46:50.737Z,2.45
2022-10-17T14:49:24.572Z,2.92
2022-10-17T14:52:16.821Z,4.65
2022-10-17T14:54:47.107Z,4.07
2022-10-17T15:00:14.236Z,4.25
2022-10-17T15:02:40.821Z,5.38
2022-10-17T15:05:12.192Z,2.53
2022-10-17T15:07:39.769Z,7.38
2022-10-17T15:10:06.686Z,4.50
2022-10-17T15:12:33.364Z,10.23
2022-10-17T15:15:00.037Z,2.53
2022-10-17T15:17:29.578Z,5.18
2022-10-17T15:19:56.612Z,5.63
2022-10-17T15:22:23.418Z,2.60
2022-10-17T15:24:50.212Z,2.50
2022-10-17T15:27:19.768Z,4.32
2022-10-17T15:29:46.385Z,2.72
2022-10-17T15:32:13.029Z,5.80
2022-10-17T15:34:39.810Z,3.28
2022-10-17T15:37:06.980Z,6.50
2022-10-17T15:39:33.731Z,3.70
2022-10-17T15:42:00.369Z,6.70
2022-10-17T15:44:27.040Z,6.00
2022-10-17T15:46:53.812Z,3.42
2022-10-17T15:49:20.486Z,5.57
2022-10-17T15:51:50.307Z,5.38
2022-10-17T15:54:18.278Z,2.70
2022-10-17T15:56:47.873Z,5.80
2022-10-17T15:59:18.666Z,5.40
2022-10-17T16:01:45.376Z,3.38
2022-10-17T16:04:15.585Z,5.30
2022-10-17T16:06:43.382Z,3.08
2022-10-17T16:09:10.091Z,2.92
2022-10-17T16:11:38.491Z,2.97
2022-10-17T16:14:06.919Z,4.70
2022-10-17T16:16:38.465Z,3.65
2022-10-17T16:19:05.448Z,4.68
2022-10-17T16:21:34.030Z,5.47
2022-10-17T16:24:00.674Z,6.30
2022-10-17T16:26:27.999Z,6.43
2022-10-17T16:28:56.154Z,7.55
2022-10-17T16:31:26.082Z,5.93
2022-10-17T16:33:53.802Z,6.10
2022-10-17T16:36:20.627Z,7.30
2022-10-17T16:38:47.488Z,5.68
2022-10-17T16:41:22.689Z,6.40
2022-10-17T16:43:50.193Z,6.80
2022-10-17T16:46:16.916Z,8.77
2022-10-17T16:48:44.300Z,8.68
2022-10-17T16:51:11.775Z,14.75
2022-10-17T16:53:40.096Z,13.93
2022-10-17T16:56:08.082Z,16.33
2022-10-17T16:58:34.666Z,9.82
2022-10-17T17:01:03.282Z,12.30
2022-10-17T17:03:30.074Z,7.75
2022-10-17T17:05:56.985Z,10.85
2022-10-17T17:08:23.590Z,8.52
2022-10-17T17:10:51.071Z,11.32
2022-10-17T17:13:18.317Z,9.48
2022-10-17T17:18:14.114Z,9.50
2022-10-17T17:20:41.660Z,6.30
2022-10-17T17:23:13.682Z,8.43
2022-10-17T17:25:42.487Z,9.40
2022-10-17T17:28:09.170Z,11.95
2022-10-17T17:30:35.825Z,11.40
2022-10-17T17:33:02.470Z,7.97
2022-10-17T17:35:29.167Z,12.00
2022-10-17T17:37:55.910Z,15.50
2022-10-17T17:40:22.522Z,15.07
2022-10-17T17:42:49.249Z,14.57
2022-10-17T17:45:16.070Z,15.90
2022-10-17T17:47:42.686Z,14.95
2022-10-17T17:50:09.461Z,12.93
2022-10-17T17:52:36.183Z,10.73
2022-10-17T17:55:02.775Z,16.40
2022-10-17T17:57:30.091Z,15.90
2022-10-17T17:59:56.778Z,9.70
2022-10-17T18:02:23.365Z,8.50
2022-10-17T18:04:49.911Z,8.75
2022-10-17T18:07:16.499Z,9.52
2022-10-17T18:09:43.059Z,13.05
2022-10-17T18:12:09.606Z,7.95
2022-10-17T18:14:36.279Z,11.35
2022-10-17T18:17:02.883Z,20.35
2022-10-17T18:19:29.541Z,11.85
2022-10-17T18:21:56.146Z,14.02
2022-10-17T18:24:22.854Z,11.25
2022-10-17T18:26:50.923Z,9.95
2022-10-17T18:29:17.606Z,11.13
2022-10-17T18:31:44.361Z,14.80
2022-10-17T18:34:11.027Z,13.80
2022-10-17T18:36:37.743Z,11.63
2022-10-17T18:39:04.631Z,11.57
2022-10-17T18:41:31.647Z,18.52
2022-10-17T18:43:58.362Z,10.55
2022-10-17T18:46:28.047Z,11.38
2022-10-17T18:48:55.100Z,13.85
2022-10-17T18:51:22.646Z,13.82
2022-10-17T18:53:51.065Z,9.27
2022-10-17T18:56:17.992Z,13.13
2022-10-17T18:58:44.666Z,11.82
2022-10-17T19:01:15.543Z,11.27
2022-10-17T19:03:43.154Z,12.45
2022-10-17T19:06:10.813Z,13.52
2022-10-17T19:08:37.739Z,20.48
2022-10-17T19:11:06.857Z,11.68
2022-10-17T19:13:33.796Z,10.50
2022-10-17T19:16:00.643Z,16.55
2022-10-17T19:18:27.206Z,11.00
2022-10-17T19:20:53.847Z,12.43
2022-10-17T19:23:20.430Z,13.05
2022-10-17T19:25:46.990Z,12.63
2022-10-17T19:28:13.571Z,11.65
2022-10-17T19:30:41.978Z,14.60
2022-10-17T19:33:08.607Z,18.08
2022-10-17T19:35:35.317Z,13.23
2022-10-17T19:38:01.889Z,11.23
2022-10-17T19:40:28.743Z,12.90
2022-10-17T19:42:55.425Z,11.25
2022-10-17T19:45:22.042Z,13.93
2022-10-17T19:47:48.619Z,9.93
2022-10-17T19:50:15.407Z,13.80
2022-10-17T19:52:41.959Z,16.52
2022-10-17T19:55:08.721Z,9.98
2022-10-17T19:57:36.437Z,15.63
2022-10-17T20:00:03.410Z,10.43
2022-10-17T20:02:30.352Z,11.63
2022-10-17T20:05:17.154Z,14.75
2022-10-17T20:07:43.905Z,10.13
2022-10-17T20:10:10.489Z,10.18
2022-10-17T20:12:37.531Z,10.80
2022-10-17T20:15:05.908Z,13.73
2022-10-17T20:17:32.542Z,13.82
2022-10-17T20:19:59.995Z,10.98
2022-10-17T20:22:27.210Z,8.55
2022-10-17T20:24:53.830Z,11.30
2022-10-17T20:27:24.215Z,8.43
2022-10-17T20:29:53.490Z,13.02
2022-10-17T20:32:20.123Z,10.77
2022-10-17T20:34:46.710Z,13.65
2022-10-17T20:37:13.282Z,11.82
2022-10-17T20:39:39.870Z,14.60
2022-10-17T20:42:07.047Z,14.27
2022-10-17T20:44:33.751Z,18.00
2022-10-17T20:47:02.741Z,11.65
2022-10-17T20:49:30.066Z,10.60
2022-10-17T20:51:57.000Z,10.60
2022-10-17T20:54:23.743Z,10.50
2022-10-17T20:56:50.464Z,16.60
2022-10-17T20:59:17.617Z,11.88
2022-10-17T21:01:45.181Z,12.45
2022-10-17T21:06:58.816Z,11.52
2022-10-17T21:09:25.590Z,9.68
2022-10-17T21:11:55.146Z,9.57
2022-10-17T21:14:22.447Z,17.65
2022-10-17T21:16:49.054Z,15.68
2022-10-17T21:19:15.838Z,10.35
2022-10-17T21:21:44.555Z,8.43
2022-10-17T21:24:13.971Z,9.77
2022-10-17T21:26:41.466Z,11.75
2022-10-17T21:29:08.212Z,9.38
2022-10-17T21:31:36.385Z,11.60
2022-10-17T21:34:07.353Z,14.18
2022-10-17T21:36:34.063Z,7.05
2022-10-17T21:39:00.772Z,11.90
2022-10-17T21:41:28.148Z,12.45
2022-10-17T21:43:56.162Z,9.65
2022-10-17T21:46:22.981Z,12.43
2022-10-17T21:48:51.599Z,10.60
2022-10-17T21:51:20.218Z,9.43
2022-10-17T21:53:46.834Z,11.55
2022-10-17T21:56:15.424Z,14.85
2022-10-17T21:58:42.210Z,9.82
2022-10-17T22:01:18.123Z,8.77
2022-10-17T22:03:47.092Z,9.40
2022-10-17T22:06:38.615Z,8.77
2022-10-17T22:09:03.831Z,8.63
2022-10-17T22:11:31.447Z,6.78
2022-10-17T22:13:59.822Z,7.18
2022-10-17T22:16:26.418Z,6.60
2022-10-17T22:18:55.938Z,11.80
2022-10-17T22:21:22.725Z,10.77
2022-10-17T22:23:56.641Z,10.75
2022-10-17T22:26:23.308Z,7.07
2022-10-17T22:28:49.941Z,10.20
2022-10-17T22:31:16.731Z,8.23
2022-10-17T22:33:43.318Z,10.25
2022-10-17T22:36:09.993Z,8.90
2022-10-17T22:38:36.627Z,9.73
2022-10-17T22:41:03.564Z,7.20
2022-10-17T22:43:30.425Z,9.23
2022-10-17T22:45:59.418Z,7.78
2022-10-17T22:48:26.240Z,6.78
2022-10-17T22:50:53.119Z,8.50
2022-10-17T22:53:23.993Z,15.02
2022-10-17T22:55:53.934Z,7.07
2022-10-17T22:58:20.943Z,12.45
2022-10-17T23:00:48.411Z,7.97
2022-10-17T23:03:14.995Z,7.22
2022-10-17T23:05:41.674Z,9.27
2022-10-17T23:08:08.414Z,8.30
2022-10-17T23:10:35.215Z,7.80
2022-10-17T23:13:01.835Z,9.48
2022-10-17T23:15:28.476Z,7.80
2022-10-17T23:17:55.092Z,7.47
2022-10-17T23:20:21.702Z,6.85
2022-10-17T23:22:48.277Z,6.72
2022-10-17T23:25:14.948Z,7.45
2022-10-17T23:27:41.522Z,6.28
2022-10-17T23:30:08.459Z,7.03
2022-10-17T23:32:35.033Z,8.98
2022-10-17T23:35:01.669Z,9.18
2022-10-17T23:37:28.906Z,7.10
2022-10-17T23:39:55.826Z,8.40
2022-10-17T23:42:22.985Z,9.02
2022-10-17T23:44:49.574Z,6.50
2022-10-17T23:47:16.163Z,8.43
2022-10-17T23:49:42.834Z,7.38
2022-10-17T23:52:09.599Z,6.90
2022-10-17T23:54:36.265Z,5.55
2022-10-17T23:57:02.995Z,7.40
2022-10-17T23:59:29.631Z,9.65
